Commodore Goodwill — C6NU8 — position and weather

sailwx.info

Track history (hours):
 
Tides and Currents Weather Stations Pressure Air Temp Water Temp Dewpoint Dewpoint Depression Visibility Wind Speed Wind Dir Waves Ship Positions

Commodore Goodwill

Operator: Condor Marine Services

Last reported at 2019-Mar-22 11:09 UTC. Time now 2019-Mar-22 11:59 UTC.
Position N 49°10' W 002°07'.

Length 126 m; draft 5.1 m.

Type: Ship (hazmat cat C). MMSI: 309536000.

Date/timePositionNaut miles runAvg speedWind from/ knotsBaromVisibWave heightAir tempDewpointWater temp
2019-Mar-22 11:09N 49°10' W 002°07'8 2.4
2019-Mar-22 07:51N 49°12' W 002°19'1017.1
2019-Mar-22 07:14N 49°21' W 002°26'417.6
2019-Mar-22 07:00N 49°25' W 002°29'3 6.6
2019-Mar-22 06:30N 49°27' W 002°32'0 0.0
2019-Mar-22 06:00N 49°27' W 002°32'0 0.0
2019-Mar-22 05:29N 49°27' W 002°32'0 0.0
2019-Mar-22 05:00N 49°27' W 002°32'4 7.6
2019-Mar-22 04:30N 49°26' W 002°26'815.9
2019-Mar-22 04:00N 49°31' W 002°16'1513.6
2019-Mar-22 02:55N 49°43' W 002°04'5516.6
2019-Mar-21 23:35N 50°29' W 001°16'114.1
2019-Mar-21 23:30N 50°30' W 001°15'815.6
2019-Mar-21 23:01N 50°36' W 001°08'612.8
2019-Mar-21 22:30N 50°42' W 001°03'612.5
2019-Mar-21 22:00N 50°48' W 001°07'1 2.2
2019-Mar-21 21:30N 50°49' W 001°06'0 0.0
2019-Mar-21 21:00N 50°49' W 001°06'0 0.0
2019-Mar-21 20:30N 50°49' W 001°06'0 0.0
2019-Mar-21 20:00N 50°49' W 001°06'0 0.0
2019-Mar-21 19:30N 50°49' W 001°06'0 0.0
2019-Mar-21 19:00N 50°49' W 001°06'0 0.0
2019-Mar-21 18:30N 50°49' W 001°06'0 0.0
2019-Mar-21 18:00N 50°49' W 001°06'1 1.6
2019-Mar-21 17:30N 50°48' W 001°07'510.9
2019-Mar-21 17:00N 50°44' W 001°03'714.4
2019-Mar-21 16:30N 50°37' W 001°04'816.7
2019-Mar-21 16:00N 50°30' W 001°13'4815.3
2019-Mar-21 12:52N 49°53' W 001°59'1014.7
2019-Mar-21 12:13N 49°43' W 002°02'2716.4
2019-Mar-21 10:33N 49°19' W 002°20'518.4
2019-Mar-21 10:18N 49°14' W 002°22'1017.6
2019-Mar-21 09:43N 49°10' W 002°07'0 0.0
2019-Mar-21 06:53N 49°10' W 002°07'1415.1
2019-Mar-21 05:57N 49°19' W 002°24'817.7
2019-Mar-21 05:30N 49°26' W 002°30'2 4.0
2019-Mar-21 05:00N 49°27' W 002°32'0 0.0
2019-Mar-21 04:30N 49°27' W 002°32'0 0.0
2019-Mar-21 04:00N 49°27' W 002°32'4 7.9
2019-Mar-21 03:30N 49°26' W 002°26'917.2
2019-Mar-21 03:00N 49°31' W 002°15'813.7
2019-Mar-21 02:26N 49°37' W 002°07'715.0
2019-Mar-21 01:59N 49°43' W 002°03'5515.7
2019-Mar-20 22:30N 50°29' W 001°16'815.6
2019-Mar-20 22:00N 50°35' W 001°09'815.7
2019-Mar-20 21:31N 50°42' W 001°03'714.0
2019-Mar-20 21:01N 50°48' W 001°07'1 1.8
2019-Mar-20 20:30N 50°49' W 001°06'0 0.0
2019-Mar-20 20:00N 50°49' W 001°06'0 0.0
2019-Mar-20 19:30N 50°49' W 001°06'0 0.0
2019-Mar-20 19:00N 50°49' W 001°06'0 0.0
2019-Mar-20 18:30N 50°49' W 001°06'0 0.0
2019-Mar-20 18:00N 50°49' W 001°06'0 0.1
2019-Mar-20 17:31N 50°49' W 001°06'3 5.7
2019-Mar-20 17:00N 50°46' W 001°05'713.2
2019-Mar-20 16:31N 50°40' W 001°01'918.0
2019-Mar-20 16:01N 50°33' W 001°09'1217.4
2019-Mar-20 15:21N 50°23' W 001°20'4515.7
2019-Mar-20 12:28N 49°46' W 002°01'1414.0
2019-Mar-20 11:29N 49°34' W 002°09'817.0
2019-Mar-20 11:00N 49°26' W 002°14'917.4
2019-Mar-20 10:29N 49°18' W 002°19'816.8
2019-Mar-20 10:00N 49°10' W 002°16'6 1.8
2019-Mar-20 06:34N 49°11' W 002°07'1 8.3
2019-Mar-20 06:27N 49°10' W 002°08'1113.3
2019-Mar-20 05:37N 49°18' W 002°20'215.4
2019-Mar-20 05:31N 49°19' W 002°19'815.6
2019-Mar-20 05:00N 49°27' W 002°14'816.6
2019-Mar-20 04:30N 49°34' W 002°09'1016.6
2019-Mar-20 03:53N 49°44' W 002°03'915.0
2019-Mar-20 03:19N 49°51' W 001°57'515.8
2019-Mar-20 03:00N 49°56' W 001°53'4016.8
2019-Mar-20 00:39N 50°28' W 001°18'216.1
2019-Mar-20 00:30N 50°30' W 001°16'817.3
2019-Mar-20 00:00N 50°37' W 001°08'815.7
2019-Mar-19 23:31N 50°44' W 001°04'4 8.9
2019-Mar-19 23:00N 50°49' W 001°06'0 0.0
2019-Mar-19 22:30N 50°49' W 001°06'0 0.0
2019-Mar-19 22:00N 50°49' W 001°06'0 0.0
2019-Mar-19 21:30N 50°49' W 001°06'0 0.0
2019-Mar-19 21:00N 50°49' W 001°06'0 0.0
2019-Mar-19 20:30N 50°49' W 001°06'0 0.0
2019-Mar-19 20:00N 50°49' W 001°06'0 0.0
2019-Mar-19 19:30N 50°49' W 001°06'0 0.0
2019-Mar-19 19:00N 50°49' W 001°06'2 4.4
2019-Mar-19 18:30N 50°47' W 001°06'714.0
2019-Mar-19 18:00N 50°40' W 001°01'917.2
2019-Mar-19 17:30N 50°33' W 001°08'712.6
2019-Mar-19 16:55N 50°27' W 001°14'4913.9
2019-Mar-19 13:25N 49°48' W 001°59'1212.5
2019-Mar-19 12:28N 49°37' W 002°06'613.7
2019-Mar-19 12:00N 49°32' W 002°13'714.7
2019-Mar-19 11:31N 49°28' W 002°22'510.4
2019-Mar-19 11:01N 49°27' W 002°30'1 2.3
2019-Mar-19 10:30N 49°27' W 002°32'0 0.0
2019-Mar-19 10:00N 49°27' W 002°32'0 0.0
2019-Mar-19 09:30N 49°27' W 002°32'510.2
2019-Mar-19 09:00N 49°23' W 002°28'917.1
2019-Mar-19 08:30N 49°15' W 002°22'1115.4
2019-Mar-19 07:48N 49°10' W 002°07'11 3.3
2019-Mar-19 04:24N 49°17' W 002°21'614.4
2019-Mar-19 04:00N 49°22' W 002°17'613.1
2019-Mar-19 03:30N 49°28' W 002°13'714.3
2019-Mar-19 03:00N 49°35' W 002°09'916.5
2019-Mar-19 02:27N 49°43' W 002°04'5615.2
2019-Mar-18 22:46N 50°30' W 001°15'415.2
2019-Mar-18 22:30N 50°33' W 001°11'815.0
2019-Mar-18 22:00N 50°39' W 001°05'713.3
2019-Mar-18 21:30N 50°46' W 001°05'3 5.8
2019-Mar-18 21:00N 50°49' W 001°06'0 0.0
2019-Mar-18 20:30N 50°49' W 001°06'0 0.0
2019-Mar-18 20:00N 50°49' W 001°06'0 0.0
2019-Mar-18 19:30N 50°49' W 001°06'0 0.0
2019-Mar-18 19:00N 50°49' W 001°06'0 0.0
2019-Mar-18 18:30N 50°49' W 001°06'0 0.0
2019-Mar-18 18:00N 50°49' W 001°06'0 0.6
2019-Mar-18 17:30N 50°49' W 001°06'5 9.9
2019-Mar-18 17:01N 50°44' W 001°04'714.6
2019-Mar-18 16:31N 50°37' W 001°05'1019.7
2019-Mar-18 16:00N 50°28' W 001°13'5517.5
2019-Mar-18 12:52N 49°44' W 002°03'614.8
2019-Mar-18 12:26N 49°38' W 002°07'715.7
2019-Mar-18 12:01N 49°32' W 002°13'816.9
2019-Mar-18 11:30N 49°27' W 002°24'510.6
2019-Mar-18 11:01N 49°27' W 002°32'0 0.0
2019-Mar-18 10:30N 49°27' W 002°32'0 0.0
2019-Mar-18 10:00N 49°27' W 002°32'0 0.0
2019-Mar-18 09:31N 49°27' W 002°32'0 0.0
2019-Mar-18 09:01N 49°27' W 002°32'0 0.0
2019-Mar-18 08:30N 49°27' W 002°32'0 0.0
2019-Mar-18 08:01N 49°27' W 002°32'5 9.6
2019-Mar-18 07:30N 49°23' W 002°28'714.4
2019-Mar-18 07:00N 49°17' W 002°22'2 0.4
2019-Mar-18 02:58N 49°18' W 002°20'816.1
2019-Mar-18 02:30N 49°25' W 002°15'917.2
2019-Mar-18 02:00N 49°32' W 002°10'1314.1
2019-Mar-18 01:04N 49°45' W 002°03'1214.7
2019-Mar-18 00:16N 49°54' W 001°52'4113.7
2019-Mar-17 21:14N 50°29' W 001°16'313.4
2019-Mar-17 21:00N 50°31' W 001°13'713.7
2019-Mar-17 20:30N 50°37' W 001°07'714.2
2019-Mar-17 20:00N 50°43' W 001°03'510.9
2019-Mar-17 19:30N 50°49' W 001°06'0 0.4
2019-Mar-17 19:00N 50°49' W 001°06'0 0.0
2019-Mar-17 18:30N 50°49' W 001°06'0 0.0
2019-Mar-17 18:00N 50°49' W 001°06'0 0.0
2019-Mar-17 17:30N 50°49' W 001°06'0 0.0
2019-Mar-17 17:00N 50°49' W 001°06'0 0.0
2019-Mar-17 16:30N 50°49' W 001°06'0 0.0
2019-Mar-17 16:00N 50°49' W 001°06'0 0.0
2019-Mar-17 15:30N 50°49' W 001°06'0 0.0
2019-Mar-17 15:00N 50°49' W 001°06'0 0.0
2019-Mar-17 14:30N 50°49' W 001°06'0 0.0
2019-Mar-17 14:00N 50°49' W 001°06'0 0.0
2019-Mar-17 13:30N 50°49' W 001°06'0 0.0
2019-Mar-17 13:00N 50°49' W 001°06'0 0.0
2019-Mar-17 12:30N 50°49' W 001°06'0 0.0
2019-Mar-17 12:00N 50°49' W 001°06'0 0.0
2019-Mar-17 11:30N 50°49' W 001°06'0 0.0
2019-Mar-17 11:00N 50°49' W 001°06'0 0.0
2019-Mar-17 10:30N 50°49' W 001°06'0 0.0
2019-Mar-17 10:00N 50°49' W 001°06'0 0.0
2019-Mar-17 09:30N 50°49' W 001°06'0 0.0
2019-Mar-17 09:00N 50°49' W 001°06'0 0.0
2019-Mar-17 08:30N 50°49' W 001°06'0 0.0
2019-Mar-17 08:00N 50°49' W 001°06'0 0.0
2019-Mar-17 07:30N 50°49' W 001°06'0 0.4
2019-Mar-17 07:01N 50°49' W 001°06'5 9.1
2019-Mar-17 06:31N 50°44' W 001°04'816.6
2019-Mar-17 06:01N 50°36' W 001°08'916.9
2019-Mar-17 05:29N 50°28' W 001°13'5315.8
2019-Mar-17 02:09N 49°46' W 002°02'815.7
2019-Mar-17 01:39N 49°40' W 002°10'713.6
2019-Mar-17 01:09N 49°34' W 002°06'513.9
2019-Mar-17 00:48N 49°31' W 002°12'911.7
2019-Mar-17 00:01N 49°23' W 002°19'110.2
2019-Mar-16 23:56N 49°22' W 002°20'614.5
2019-Mar-16 23:31N 49°19' W 002°28'16 1.3
2019-Mar-16 11:15N 49°10' W 002°08'518.5
2019-Mar-16 10:59N 49°10' W 002°16'918.7
2019-Mar-16 10:30N 49°14' W 002°28'612.1
2019-Mar-16 09:59N 49°20' W 002°32'715.5
2019-Mar-16 09:30N 49°27' W 002°30'1 2.9
2019-Mar-16 09:01N 49°27' W 002°32'0 0.0
2019-Mar-16 08:30N 49°27' W 002°32'0 0.0
2019-Mar-16 08:00N 49°27' W 002°32'0 0.0
2019-Mar-16 07:31N 49°27' W 002°32'0 0.0
2019-Mar-16 07:00N 49°27' W 002°32'2 4.4
2019-Mar-16 06:30N 49°26' W 002°29'917.3
2019-Mar-16 06:01N 49°30' W 002°18'916.8
2019-Mar-16 05:30N 49°36' W 002°08'1016.8
2019-Mar-16 04:55N 49°45' W 002°02'5613.4
2019-Mar-16 00:46N 50°31' W 001°13'415.0
2019-Mar-16 00:28N 50°35' W 001°10'715.8
2019-Mar-16 00:01N 50°41' W 001°03'714.9
2019-Mar-15 23:31N 50°48' W 001°07'1 2.4
2019-Mar-15 23:00N 50°49' W 001°06'0 0.0
2019-Mar-15 22:30N 50°49' W 001°06'0 0.0
2019-Mar-15 22:00N 50°49' W 001°06'0 0.0
2019-Mar-15 21:30N 50°49' W 001°06'0 0.0
2019-Mar-15 21:00N 50°49' W 001°06'0 0.0
2019-Mar-15 20:30N 50°49' W 001°06'0 0.0
2019-Mar-15 20:00N 50°49' W 001°06'3 5.1
2019-Mar-15 19:30N 50°46' W 001°05'612.3
2019-Mar-15 19:01N 50°40' W 001°04'917.0
2019-Mar-15 18:30N 50°33' W 001°12'3417.5
2019-Mar-15 16:33N 50°04' W 001°41'318.5
2019-Mar-15 16:25N 50°02' W 001°43'818.8
2019-Mar-15 16:00N 49°56' W 001°50'1019.4
2019-Mar-15 15:31N 49°49' W 001°59'1120.3
2019-Mar-15 14:58N 49°40' W 002°10'816.5
2019-Mar-15 14:28N 49°33' W 002°02'818.3
2019-Mar-15 14:00N 49°27' W 002°12'919.0
2019-Mar-15 13:31N 49°22' W 002°23'713.2
2019-Mar-15 13:00N 49°15' W 002°22'6 1.3
2019-Mar-15 08:19N 49°10' W 002°16'818.5
2019-Mar-15 07:54N 49°14' W 002°27'512.5
2019-Mar-15 07:27N 49°19' W 002°31'714.9
2019-Mar-15 07:00N 49°26' W 002°29'2 5.0
2019-Mar-15 06:31N 49°27' W 002°32'0 0.0
2019-Mar-15 06:00N 49°27' W 002°32'0 0.0
2019-Mar-15 05:30N 49°27' W 002°32'0 0.0
2019-Mar-15 05:00N 49°27' W 002°32'0 0.1
2019-Mar-15 04:30N 49°27' W 002°32'4 7.9
2019-Mar-15 04:00N 49°26' W 002°26'816.2
2019-Mar-15 03:31N 49°31' W 002°16'713.9
2019-Mar-15 03:00N 49°36' W 002°08'1115.0
2019-Mar-15 02:16N 49°46' W 002°02'613.4
2019-Mar-15 01:49N 49°50' W 001°55'4614.1
2019-Mar-14 22:33N 50°29' W 001°16'116.3
2019-Mar-14 22:29N 50°30' W 001°15'816.7
2019-Mar-14 22:00N 50°37' W 001°08'815.6
2019-Mar-14 21:30N 50°44' W 001°04'510.2
2019-Mar-14 21:00N 50°49' W 001°06'0 0.0
2019-Mar-14 20:30N 50°49' W 001°06'0 0.0
2019-Mar-14 20:00N 50°49' W 001°06'0 0.0
2019-Mar-14 19:30N 50°49' W 001°06'0 0.0
2019-Mar-14 19:00N 50°49' W 001°06'0 0.0
2019-Mar-14 18:31N 50°49' W 001°06'0 0.0
2019-Mar-14 18:00N 50°49' W 001°06'0 0.0
2019-Mar-14 17:30N 50°49' W 001°06'0 0.0
2019-Mar-14 17:00N 50°49' W 001°06'0 0.0
2019-Mar-14 16:30N 50°49' W 001°06'0 0.0
2019-Mar-14 16:00N 50°49' W 001°06'3 5.4
2019-Mar-14 15:30N 50°46' W 001°05'5 9.5
2019-Mar-14 15:00N 50°41' W 001°03'4 8.1
2019-Mar-14 14:30N 50°38' W 001°05'714.6
2019-Mar-14 14:00N 50°35' W 000°54'4717.4
2019-Mar-14 11:18N 49°60' W 001°43'518.1
2019-Mar-14 11:00N 49°56' W 001°49'1018.2
2019-Mar-14 10:28N 49°49' W 001°59'817.9
2019-Mar-14 10:00N 49°42' W 002°07'816.7
2019-Mar-14 09:31N 49°37' W 002°16'918.1
2019-Mar-14 09:01N 49°31' W 002°27'5 9.4
2019-Mar-14 08:31N 49°27' W 002°32'0 0.0
2019-Mar-14 08:01N 49°27' W 002°32'0 0.0
2019-Mar-14 07:31N 49°27' W 002°32'0 0.0
2019-Mar-14 07:01N 49°27' W 002°32'0 0.0
2019-Mar-14 06:31N 49°27' W 002°32'0 0.1
2019-Mar-14 06:01N 49°27' W 002°32'3 6.9
2019-Mar-14 05:31N 49°26' W 002°27'815.6
2019-Mar-14 05:01N 49°30' W 002°18'815.4
2019-Mar-14 04:31N 49°35' W 002°08'913.8
2019-Mar-14 03:53N 49°43' W 002°03'5315.1
2019-Mar-14 00:21N 50°27' W 001°17'515.0
2019-Mar-14 00:01N 50°32' W 001°12'815.5
2019-Mar-13 23:28N 50°39' W 001°05'715.2
2019-Mar-13 23:01N 50°46' W 001°05'3 5.9
2019-Mar-13 22:30N 50°49' W 001°06'0 0.0
2019-Mar-13 22:00N 50°49' W 001°06'0 0.0
2019-Mar-13 21:30N 50°49' W 001°06'0 0.0
2019-Mar-13 21:00N 50°49' W 001°06'0 0.0
2019-Mar-13 20:30N 50°49' W 001°06'0 0.0
2019-Mar-13 20:00N 50°49' W 001°06'0 0.0
2019-Mar-13 19:30N 50°49' W 001°06'0 0.0
2019-Mar-13 19:00N 50°49' W 001°06'2 3.9
2019-Mar-13 18:30N 50°47' W 001°06'713.4
2019-Mar-13 18:01N 50°40' W 001°04'816.3
2019-Mar-13 17:30N 50°33' W 001°11'816.2
2019-Mar-13 17:00N 50°26' W 001°18'4217.5
2019-Mar-13 14:37N 49°52' W 001°54'1818.8
2019-Mar-13 13:40N 49°39' W 002°12'318.1
2019-Mar-13 13:31N 49°37' W 002°16'918.0
2019-Mar-13 13:01N 49°31' W 002°27'510.1
2019-Mar-13 12:30N 49°27' W 002°32'0 0.0
2019-Mar-13 12:01N 49°27' W 002°32'0 0.0
2019-Mar-13 11:30N 49°27' W 002°32'0 0.0
2019-Mar-13 11:00N 49°27' W 002°32'0 0.0
2019-Mar-13 10:31N 49°27' W 002°32'0 0.4
2019-Mar-13 10:01N 49°27' W 002°31'510.0
2019-Mar-13 09:31N 49°23' W 002°29'714.9
2019-Mar-13 09:00N 49°16' W 002°23'713.9
2019-Mar-13 08:30N 49°10' W 002°17'611.6
2019-Mar-13 08:00N 49°10' W 002°08'5 9.3
2019-Mar-13 07:27N 49°10' W 002°16'818.8
2019-Mar-13 07:00N 49°15' W 002°27'814.8
2019-Mar-13 06:30N 49°22' W 002°29'511.0
2019-Mar-13 06:00N 49°27' W 002°32'0 0.0
2019-Mar-13 05:31N 49°27' W 002°32'0 0.0
2019-Mar-13 05:01N 49°27' W 002°32'0 0.0
2019-Mar-13 04:31N 49°27' W 002°32'0 0.0
2019-Mar-13 04:01N 49°27' W 002°32'4 7.8
2019-Mar-13 03:30N 49°26' W 002°26'918.3
2019-Mar-13 03:00N 49°32' W 002°14'816.2
2019-Mar-13 02:30N 49°38' W 002°06'6113.2
2019-Mar-12 21:51N 50°28' W 001°10'514.0
2019-Mar-12 21:30N 50°32' W 001°07'714.7
2019-Mar-12 21:00N 50°38' W 001°02'714.2
2019-Mar-12 20:31N 50°45' W 001°05'4 7.3
2019-Mar-12 20:00N 50°49' W 001°06'0 0.0
2019-Mar-12 19:30N 50°49' W 001°06'0 0.0
2019-Mar-12 19:00N 50°49' W 001°06'0 0.0
2019-Mar-12 18:30N 50°49' W 001°06'0 0.0
2019-Mar-12 18:00N 50°49' W 001°06'0 0.0
2019-Mar-12 17:30N 50°49' W 001°06'0 0.0
2019-Mar-12 17:00N 50°49' W 001°06'0 0.0
2019-Mar-12 16:31N 50°49' W 001°06'2 3.9
2019-Mar-12 16:00N 50°47' W 001°06'714.3
2019-Mar-12 15:30N 50°40' W 001°04'816.6
2019-Mar-12 15:00N 50°33' W 001°12'816.3
2019-Mar-12 14:30N 50°26' W 001°18'4716.6
2019-Mar-12 11:40N 49°47' W 002°00'722.4
2019-Mar-12 11:22N 49°41' W 002°05'  
Track history (hours):
 
Tides and Currents Weather Stations Pressure Air Temp Water Temp Dewpoint Dewpoint Depression Visibility Wind Speed Wind Dir Waves Ship Positions

Commodore Goodwill

Operator: Condor Marine Services

Last reported at 2019-Mar-22 11:09 UTC. Time now 2019-Mar-22 11:59 UTC.
Position N 49°10' W 002°07'.

Length 126 m; draft 5.1 m.

Type: Ship (hazmat cat C). MMSI: 309536000.

Date/timePositionNaut miles runAvg speedWind from/ knotsBaromVisibWave heightAir tempDewpointWater temp
2019-Mar-22 11:09N 49°10' W 002°07'8 2.4
2019-Mar-22 07:51N 49°12' W 002°19'1017.1
2019-Mar-22 07:14N 49°21' W 002°26'417.6
2019-Mar-22 07:00N 49°25' W 002°29'3 6.6
2019-Mar-22 06:30N 49°27' W 002°32'0 0.0
2019-Mar-22 06:00N 49°27' W 002°32'0 0.0
2019-Mar-22 05:29N 49°27' W 002°32'0 0.0
2019-Mar-22 05:00N 49°27' W 002°32'4 7.6
2019-Mar-22 04:30N 49°26' W 002°26'815.9
2019-Mar-22 04:00N 49°31' W 002°16'1513.6
2019-Mar-22 02:55N 49°43' W 002°04'5516.6
2019-Mar-21 23:35N 50°29' W 001°16'114.1
2019-Mar-21 23:30N 50°30' W 001°15'815.6
2019-Mar-21 23:01N 50°36' W 001°08'612.8
2019-Mar-21 22:30N 50°42' W 001°03'612.5
2019-Mar-21 22:00N 50°48' W 001°07'1 2.2
2019-Mar-21 21:30N 50°49' W 001°06'0 0.0
2019-Mar-21 21:00N 50°49' W 001°06'0 0.0
2019-Mar-21 20:30N 50°49' W 001°06'0 0.0
2019-Mar-21 20:00N 50°49' W 001°06'0 0.0
2019-Mar-21 19:30N 50°49' W 001°06'0 0.0
2019-Mar-21 19:00N 50°49' W 001°06'0 0.0
2019-Mar-21 18:30N 50°49' W 001°06'0 0.0
2019-Mar-21 18:00N 50°49' W 001°06'1 1.6
2019-Mar-21 17:30N 50°48' W 001°07'510.9
2019-Mar-21 17:00N 50°44' W 001°03'714.4
2019-Mar-21 16:30N 50°37' W 001°04'816.7
2019-Mar-21 16:00N 50°30' W 001°13'4815.3
2019-Mar-21 12:52N 49°53' W 001°59'1014.7
2019-Mar-21 12:13N 49°43' W 002°02'2716.4
2019-Mar-21 10:33N 49°19' W 002°20'518.4
2019-Mar-21 10:18N 49°14' W 002°22'1017.6
2019-Mar-21 09:43N 49°10' W 002°07'0 0.0
2019-Mar-21 06:53N 49°10' W 002°07'1415.1
2019-Mar-21 05:57N 49°19' W 002°24'817.7
2019-Mar-21 05:30N 49°26' W 002°30'2 4.0
2019-Mar-21 05:00N 49°27' W 002°32'0 0.0
2019-Mar-21 04:30N 49°27' W 002°32'0 0.0
2019-Mar-21 04:00N 49°27' W 002°32'4 7.9
2019-Mar-21 03:30N 49°26' W 002°26'917.2
2019-Mar-21 03:00N 49°31' W 002°15'813.7
2019-Mar-21 02:26N 49°37' W 002°07'715.0
2019-Mar-21 01:59N 49°43' W 002°03'5515.7
2019-Mar-20 22:30N 50°29' W 001°16'815.6
2019-Mar-20 22:00N 50°35' W 001°09'815.7
2019-Mar-20 21:31N 50°42' W 001°03'714.0
2019-Mar-20 21:01N 50°48' W 001°07'1 1.8
2019-Mar-20 20:30N 50°49' W 001°06'0 0.0
2019-Mar-20 20:00N 50°49' W 001°06'0 0.0
2019-Mar-20 19:30N 50°49' W 001°06'0 0.0
2019-Mar-20 19:00N 50°49' W 001°06'0 0.0
2019-Mar-20 18:30N 50°49' W 001°06'0 0.0
2019-Mar-20 18:00N 50°49' W 001°06'0 0.1
2019-Mar-20 17:31N 50°49' W 001°06'3 5.7
2019-Mar-20 17:00N 50°46' W 001°05'713.2
2019-Mar-20 16:31N 50°40' W 001°01'918.0
2019-Mar-20 16:01N 50°33' W 001°09'1217.4
2019-Mar-20 15:21N 50°23' W 001°20'4515.7
2019-Mar-20 12:28N 49°46' W 002°01'1414.0
2019-Mar-20 11:29N 49°34' W 002°09'817.0
2019-Mar-20 11:00N 49°26' W 002°14'917.4
2019-Mar-20 10:29N 49°18' W 002°19'816.8
2019-Mar-20 10:00N 49°10' W 002°16'6 1.8
2019-Mar-20 06:34N 49°11' W 002°07'1 8.3
2019-Mar-20 06:27N 49°10' W 002°08'1113.3
2019-Mar-20 05:37N 49°18' W 002°20'215.4
2019-Mar-20 05:31N 49°19' W 002°19'815.6
2019-Mar-20 05:00N 49°27' W 002°14'816.6
2019-Mar-20 04:30N 49°34' W 002°09'1016.6
2019-Mar-20 03:53N 49°44' W 002°03'915.0
2019-Mar-20 03:19N 49°51' W 001°57'515.8
2019-Mar-20 03:00N 49°56' W 001°53'4016.8
2019-Mar-20 00:39N 50°28' W 001°18'216.1
2019-Mar-20 00:30N 50°30' W 001°16'817.3
2019-Mar-20 00:00N 50°37' W 001°08'815.7
2019-Mar-19 23:31N 50°44' W 001°04'4 8.9
2019-Mar-19 23:00N 50°49' W 001°06'0 0.0
2019-Mar-19 22:30N 50°49' W 001°06'0 0.0
2019-Mar-19 22:00N 50°49' W 001°06'0 0.0
2019-Mar-19 21:30N 50°49' W 001°06'0 0.0
2019-Mar-19 21:00N 50°49' W 001°06'0 0.0
2019-Mar-19 20:30N 50°49' W 001°06'0 0.0
2019-Mar-19 20:00N 50°49' W 001°06'0 0.0
2019-Mar-19 19:30N 50°49' W 001°06'0 0.0
2019-Mar-19 19:00N 50°49' W 001°06'2 4.4
2019-Mar-19 18:30N 50°47' W 001°06'714.0
2019-Mar-19 18:00N 50°40' W 001°01'917.2
2019-Mar-19 17:30N 50°33' W 001°08'712.6
2019-Mar-19 16:55N 50°27' W 001°14'4913.9
2019-Mar-19 13:25N 49°48' W 001°59'1212.5
2019-Mar-19 12:28N 49°37' W 002°06'613.7
2019-Mar-19 12:00N 49°32' W 002°13'714.7
2019-Mar-19 11:31N 49°28' W 002°22'510.4
2019-Mar-19 11:01N 49°27' W 002°30'1 2.3
2019-Mar-19 10:30N 49°27' W 002°32'0 0.0
2019-Mar-19 10:00N 49°27' W 002°32'0 0.0
2019-Mar-19 09:30N 49°27' W 002°32'510.2
2019-Mar-19 09:00N 49°23' W 002°28'917.1
2019-Mar-19 08:30N 49°15' W 002°22'1115.4
2019-Mar-19 07:48N 49°10' W 002°07'11 3.3
2019-Mar-19 04:24N 49°17' W 002°21'614.4
2019-Mar-19 04:00N 49°22' W 002°17'613.1
2019-Mar-19 03:30N 49°28' W 002°13'714.3
2019-Mar-19 03:00N 49°35' W 002°09'916.5
2019-Mar-19 02:27N 49°43' W 002°04'5615.2
2019-Mar-18 22:46N 50°30' W 001°15'415.2
2019-Mar-18 22:30N 50°33' W 001°11'815.0
2019-Mar-18 22:00N 50°39' W 001°05'713.3
2019-Mar-18 21:30N 50°46' W 001°05'3 5.8
2019-Mar-18 21:00N 50°49' W 001°06'0 0.0
2019-Mar-18 20:30N 50°49' W 001°06'0 0.0
2019-Mar-18 20:00N 50°49' W 001°06'0 0.0
2019-Mar-18 19:30N 50°49' W 001°06'0 0.0
2019-Mar-18 19:00N 50°49' W 001°06'0 0.0
2019-Mar-18 18:30N 50°49' W 001°06'0 0.0
2019-Mar-18 18:00N 50°49' W 001°06'0 0.6
2019-Mar-18 17:30N 50°49' W 001°06'5 9.9
2019-Mar-18 17:01N 50°44' W 001°04'714.6
2019-Mar-18 16:31N 50°37' W 001°05'1019.7
2019-Mar-18 16:00N 50°28' W 001°13'5517.5
2019-Mar-18 12:52N 49°44' W 002°03'614.8
2019-Mar-18 12:26N 49°38' W 002°07'715.7
2019-Mar-18 12:01N 49°32' W 002°13'816.9
2019-Mar-18 11:30N 49°27' W 002°24'510.6
2019-Mar-18 11:01N 49°27' W 002°32'0 0.0
2019-Mar-18 10:30N 49°27' W 002°32'0 0.0
2019-Mar-18 10:00N 49°27' W 002°32'0 0.0
2019-Mar-18 09:31N 49°27' W 002°32'0 0.0
2019-Mar-18 09:01N 49°27' W 002°32'0 0.0
2019-Mar-18 08:30N 49°27' W 002°32'0 0.0
2019-Mar-18 08:01N 49°27' W 002°32'5 9.6
2019-Mar-18 07:30N 49°23' W 002°28'714.4
2019-Mar-18 07:00N 49°17' W 002°22'2 0.4
2019-Mar-18 02:58N 49°18' W 002°20'816.1
2019-Mar-18 02:30N 49°25' W 002°15'917.2
2019-Mar-18 02:00N 49°32' W 002°10'1314.1
2019-Mar-18 01:04N 49°45' W 002°03'1214.7
2019-Mar-18 00:16N 49°54' W 001°52'4113.7
2019-Mar-17 21:14N 50°29' W 001°16'313.4
2019-Mar-17 21:00N 50°31' W 001°13'713.7
2019-Mar-17 20:30N 50°37' W 001°07'714.2
2019-Mar-17 20:00N 50°43' W 001°03'510.9
2019-Mar-17 19:30N 50°49' W 001°06'0 0.4
2019-Mar-17 19:00N 50°49' W 001°06'0 0.0
2019-Mar-17 18:30N 50°49' W 001°06'0 0.0
2019-Mar-17 18:00N 50°49' W 001°06'0 0.0
2019-Mar-17 17:30N 50°49' W 001°06'0 0.0
2019-Mar-17 17:00N 50°49' W 001°06'0 0.0
2019-Mar-17 16:30N 50°49' W 001°06'0 0.0
2019-Mar-17 16:00N 50°49' W 001°06'0 0.0
2019-Mar-17 15:30N 50°49' W 001°06'0 0.0
2019-Mar-17 15:00N 50°49' W 001°06'0 0.0
2019-Mar-17 14:30N 50°49' W 001°06'0 0.0
2019-Mar-17 14:00N 50°49' W 001°06'0 0.0
2019-Mar-17 13:30N 50°49' W 001°06'0 0.0
2019-Mar-17 13:00N 50°49' W 001°06'0 0.0
2019-Mar-17 12:30N 50°49' W 001°06'0 0.0
2019-Mar-17 12:00N 50°49' W 001°06'0 0.0
2019-Mar-17 11:30N 50°49' W 001°06'0 0.0
2019-Mar-17 11:00N 50°49' W 001°06'0 0.0
2019-Mar-17 10:30N 50°49' W 001°06'0 0.0
2019-Mar-17 10:00N 50°49' W 001°06'0 0.0
2019-Mar-17 09:30N 50°49' W 001°06'0 0.0
2019-Mar-17 09:00N 50°49' W 001°06'0 0.0
2019-Mar-17 08:30N 50°49' W 001°06'0 0.0
2019-Mar-17 08:00N 50°49' W 001°06'0 0.0
2019-Mar-17 07:30N 50°49' W 001°06'0 0.4
2019-Mar-17 07:01N 50°49' W 001°06'5 9.1
2019-Mar-17 06:31N 50°44' W 001°04'816.6
2019-Mar-17 06:01N 50°36' W 001°08'916.9
2019-Mar-17 05:29N 50°28' W 001°13'5315.8
2019-Mar-17 02:09N 49°46' W 002°02'815.7
2019-Mar-17 01:39N 49°40' W 002°10'713.6
2019-Mar-17 01:09N 49°34' W 002°06'513.9
2019-Mar-17 00:48N 49°31' W 002°12'911.7
2019-Mar-17 00:01N 49°23' W 002°19'110.2
2019-Mar-16 23:56N 49°22' W 002°20'614.5
2019-Mar-16 23:31N 49°19' W 002°28'16 1.3
2019-Mar-16 11:15N 49°10' W 002°08'518.5
2019-Mar-16 10:59N 49°10' W 002°16'918.7
2019-Mar-16 10:30N 49°14' W 002°28'612.1
2019-Mar-16 09:59N 49°20' W 002°32'715.5
2019-Mar-16 09:30N 49°27' W 002°30'1 2.9
2019-Mar-16 09:01N 49°27' W 002°32'0 0.0
2019-Mar-16 08:30N 49°27' W 002°32'0 0.0
2019-Mar-16 08:00N 49°27' W 002°32'0 0.0
2019-Mar-16 07:31N 49°27' W 002°32'0 0.0
2019-Mar-16 07:00N 49°27' W 002°32'2 4.4
2019-Mar-16 06:30N 49°26' W 002°29'917.3
2019-Mar-16 06:01N 49°30' W 002°18'916.8
2019-Mar-16 05:30N 49°36' W 002°08'1016.8
2019-Mar-16 04:55N 49°45' W 002°02'5613.4
2019-Mar-16 00:46N 50°31' W 001°13'415.0
2019-Mar-16 00:28N 50°35' W 001°10'715.8
2019-Mar-16 00:01N 50°41' W 001°03'714.9
2019-Mar-15 23:31N 50°48' W 001°07'1 2.4
2019-Mar-15 23:00N 50°49' W 001°06'0 0.0
2019-Mar-15 22:30N 50°49' W 001°06'0 0.0
2019-Mar-15 22:00N 50°49' W 001°06'0 0.0
2019-Mar-15 21:30N 50°49' W 001°06'0 0.0
2019-Mar-15 21:00N 50°49' W 001°06'0 0.0
2019-Mar-15 20:30N 50°49' W 001°06'0 0.0
2019-Mar-15 20:00N 50°49' W 001°06'3 5.1
2019-Mar-15 19:30N 50°46' W 001°05'612.3
2019-Mar-15 19:01N 50°40' W 001°04'917.0
2019-Mar-15 18:30N 50°33' W 001°12'3417.5
2019-Mar-15 16:33N 50°04' W 001°41'318.5
2019-Mar-15 16:25N 50°02' W 001°43'818.8
2019-Mar-15 16:00N 49°56' W 001°50'1019.4
2019-Mar-15 15:31N 49°49' W 001°59'1120.3
2019-Mar-15 14:58N 49°40' W 002°10'816.5
2019-Mar-15 14:28N 49°33' W 002°02'818.3
2019-Mar-15 14:00N 49°27' W 002°12'919.0
2019-Mar-15 13:31N 49°22' W 002°23'713.2
2019-Mar-15 13:00N 49°15' W 002°22'6 1.3
2019-Mar-15 08:19N 49°10' W 002°16'818.5
2019-Mar-15 07:54N 49°14' W 002°27'512.5
2019-Mar-15 07:27N 49°19' W 002°31'714.9
2019-Mar-15 07:00N 49°26' W 002°29'2 5.0
2019-Mar-15 06:31N 49°27' W 002°32'0 0.0
2019-Mar-15 06:00N 49°27' W 002°32'0 0.0
2019-Mar-15 05:30N 49°27' W 002°32'0 0.0
2019-Mar-15 05:00N 49°27' W 002°32'0 0.1
2019-Mar-15 04:30N 49°27' W 002°32'4 7.9
2019-Mar-15 04:00N 49°26' W 002°26'816.2
2019-Mar-15 03:31N 49°31' W 002°16'713.9
2019-Mar-15 03:00N 49°36' W 002°08'1115.0
2019-Mar-15 02:16N 49°46' W 002°02'613.4
2019-Mar-15 01:49N 49°50' W 001°55'4614.1
2019-Mar-14 22:33N 50°29' W 001°16'116.3
2019-Mar-14 22:29N 50°30' W 001°15'816.7
2019-Mar-14 22:00N 50°37' W 001°08'815.6
2019-Mar-14 21:30N 50°44' W 001°04'510.2
2019-Mar-14 21:00N 50°49' W 001°06'0 0.0
2019-Mar-14 20:30N 50°49' W 001°06'0 0.0
2019-Mar-14 20:00N 50°49' W 001°06'0 0.0
2019-Mar-14 19:30N 50°49' W 001°06'0 0.0
2019-Mar-14 19:00N 50°49' W 001°06'0 0.0
2019-Mar-14 18:31N 50°49' W 001°06'0 0.0
2019-Mar-14 18:00N 50°49' W 001°06'0 0.0
2019-Mar-14 17:30N 50°49' W 001°06'0 0.0
2019-Mar-14 17:00N 50°49' W 001°06'0 0.0
2019-Mar-14 16:30N 50°49' W 001°06'0 0.0
2019-Mar-14 16:00N 50°49' W 001°06'3 5.4
2019-Mar-14 15:30N 50°46' W 001°05'5 9.5
2019-Mar-14 15:00N 50°41' W 001°03'4 8.1
2019-Mar-14 14:30N 50°38' W 001°05'714.6
2019-Mar-14 14:00N 50°35' W 000°54'4717.4
2019-Mar-14 11:18N 49°60' W 001°43'518.1
2019-Mar-14 11:00N 49°56' W 001°49'1018.2
2019-Mar-14 10:28N 49°49' W 001°59'817.9
2019-Mar-14 10:00N 49°42' W 002°07'816.7
2019-Mar-14 09:31N 49°37' W 002°16'918.1
2019-Mar-14 09:01N 49°31' W 002°27'5 9.4
2019-Mar-14 08:31N 49°27' W 002°32'0 0.0
2019-Mar-14 08:01N 49°27' W 002°32'0 0.0
2019-Mar-14 07:31N 49°27' W 002°32'0 0.0
2019-Mar-14 07:01N 49°27' W 002°32'0 0.0
2019-Mar-14 06:31N 49°27' W 002°32'0 0.1
2019-Mar-14 06:01N 49°27' W 002°32'3 6.9
2019-Mar-14 05:31N 49°26' W 002°27'815.6
2019-Mar-14 05:01N 49°30' W 002°18'815.4
2019-Mar-14 04:31N 49°35' W 002°08'913.8
2019-Mar-14 03:53N 49°43' W 002°03'5315.1
2019-Mar-14 00:21N 50°27' W 001°17'515.0
2019-Mar-14 00:01N 50°32' W 001°12'815.5
2019-Mar-13 23:28N 50°39' W 001°05'715.2
2019-Mar-13 23:01N 50°46' W 001°05'3 5.9
2019-Mar-13 22:30N 50°49' W 001°06'0 0.0
2019-Mar-13 22:00N 50°49' W 001°06'0 0.0
2019-Mar-13 21:30N 50°49' W 001°06'0 0.0
2019-Mar-13 21:00N 50°49' W 001°06'0 0.0
2019-Mar-13 20:30N 50°49' W 001°06'0 0.0
2019-Mar-13 20:00N 50°49' W 001°06'0 0.0
2019-Mar-13 19:30N 50°49' W 001°06'0 0.0
2019-Mar-13 19:00N 50°49' W 001°06'2 3.9
2019-Mar-13 18:30N 50°47' W 001°06'713.4
2019-Mar-13 18:01N 50°40' W 001°04'816.3
2019-Mar-13 17:30N 50°33' W 001°11'816.2
2019-Mar-13 17:00N 50°26' W 001°18'4217.5
2019-Mar-13 14:37N 49°52' W 001°54'1818.8
2019-Mar-13 13:40N 49°39' W 002°12'318.1
2019-Mar-13 13:31N 49°37' W 002°16'918.0
2019-Mar-13 13:01N 49°31' W 002°27'510.1
2019-Mar-13 12:30N 49°27' W 002°32'0 0.0
2019-Mar-13 12:01N 49°27' W 002°32'0 0.0
2019-Mar-13 11:30N 49°27' W 002°32'0 0.0
2019-Mar-13 11:00N 49°27' W 002°32'0 0.0
2019-Mar-13 10:31N 49°27' W 002°32'0 0.4
2019-Mar-13 10:01N 49°27' W 002°31'510.0
2019-Mar-13 09:31N 49°23' W 002°29'714.9
2019-Mar-13 09:00N 49°16' W 002°23'713.9
2019-Mar-13 08:30N 49°10' W 002°17'611.6
2019-Mar-13 08:00N 49°10' W 002°08'5 9.3
2019-Mar-13 07:27N 49°10' W 002°16'818.8
2019-Mar-13 07:00N 49°15' W 002°27'814.8
2019-Mar-13 06:30N 49°22' W 002°29'511.0
2019-Mar-13 06:00N 49°27' W 002°32'0 0.0
2019-Mar-13 05:31N 49°27' W 002°32'0 0.0
2019-Mar-13 05:01N 49°27' W 002°32'0 0.0
2019-Mar-13 04:31N 49°27' W 002°32'0 0.0
2019-Mar-13 04:01N 49°27' W 002°32'4 7.8
2019-Mar-13 03:30N 49°26' W 002°26'918.3
2019-Mar-13 03:00N 49°32' W 002°14'816.2
2019-Mar-13 02:30N 49°38' W 002°06'6113.2
2019-Mar-12 21:51N 50°28' W 001°10'514.0
2019-Mar-12 21:30N 50°32' W 001°07'714.7
2019-Mar-12 21:00N 50°38' W 001°02'714.2
2019-Mar-12 20:31N 50°45' W 001°05'4 7.3
2019-Mar-12 20:00N 50°49' W 001°06'0 0.0
2019-Mar-12 19:30N 50°49' W 001°06'0 0.0
2019-Mar-12 19:00N 50°49' W 001°06'0 0.0
2019-Mar-12 18:30N 50°49' W 001°06'0 0.0
2019-Mar-12 18:00N 50°49' W 001°06'0 0.0
2019-Mar-12 17:30N 50°49' W 001°06'0 0.0
2019-Mar-12 17:00N 50°49' W 001°06'0 0.0
2019-Mar-12 16:31N 50°49' W 001°06'2 3.9
2019-Mar-12 16:00N 50°47' W 001°06'714.3
2019-Mar-12 15:30N 50°40' W 001°04'816.6
2019-Mar-12 15:00N 50°33' W 001°12'816.3
2019-Mar-12 14:30N 50°26' W 001°18'4716.6
2019-Mar-12 11:40N 49°47' W 002°00'722.4
2019-Mar-12 11:22N 49°41' W 002°05'  

Dump ship's entire track history